createdAt,value
2016-08-08T20:12:16.621Z,56
2016-08-08T20:12:42.527Z,56
2016-08-08T20:13:08.091Z,56
2016-08-08T20:13:33.781Z,380
2016-08-08T20:14:15.878Z,72
2016-08-08T20:14:41.444Z,56
2016-08-08T20:15:07.255Z,60
2016-08-08T20:15:32.825Z,56
2016-08-08T20:16:23.999Z,60
2016-08-08T20:16:49.568Z,56
2016-08-08T20:17:15.151Z,56
2016-08-08T20:17:40.814Z,56
2016-08-08T20:18:06.410Z,56
2016-08-08T20:18:31.946Z,60
2016-08-08T20:18:57.515Z,56
2016-08-08T20:19:23.099Z,68
2016-08-08T20:19:48.658Z,68
2016-08-08T20:20:14.240Z,72
2016-08-08T20:20:39.858Z,68
2016-08-08T20:21:05.433Z,72
2016-08-08T20:21:31.015Z,68
2016-08-08T20:21:56.582Z,44
2016-08-08T20:22:22.153Z,52
2016-08-08T20:22:47.743Z,56
2016-08-08T20:23:13.322Z,56
2016-08-08T20:23:38.900Z,44
2016-08-08T20:24:04.539Z,56
2016-08-08T20:24:30.124Z,56
2016-08-08T20:24:55.678Z,56
2016-08-08T20:25:21.214Z,56
2016-08-08T20:25:46.759Z,56
2016-08-08T20:26:12.313Z,56
2016-08-08T20:26:37.864Z,56
2016-08-08T20:27:03.437Z,56
2016-08-08T20:28:14.502Z,56
2016-08-08T20:28:40.074Z,56
2016-08-08T20:29:05.626Z,56
2016-08-08T20:29:31.223Z,56
2016-08-08T20:29:56.793Z,56
2016-08-08T20:30:22.378Z,56
2016-08-08T20:30:47.911Z,60
2016-08-08T20:31:13.501Z,56
2016-08-08T20:31:39.084Z,60
2016-08-08T20:32:04.670Z,60
2016-08-08T20:32:30.253Z,60
2016-08-08T20:32:55.830Z,56
2016-08-08T20:33:21.406Z,56
2016-08-08T20:33:47.020Z,60
2016-08-08T20:34:12.684Z,56
2016-08-08T20:34:38.245Z,56
2016-08-08T20:35:03.803Z,56
2016-08-08T20:36:14.814Z,60
2016-08-08T20:36:40.346Z,60
2016-08-08T20:37:05.891Z,60
2016-08-08T20:37:31.436Z,60
2016-08-08T20:37:57.018Z,4
2016-08-08T20:38:22.637Z,4
2016-08-08T20:38:48.200Z,4
2016-08-08T20:39:13.863Z,4
2016-08-08T20:39:39.435Z,4
2016-08-08T20:40:05.003Z,4
2016-08-08T20:40:30.592Z,4
2016-08-08T20:40:56.155Z,4
2016-08-08T20:41:21.722Z,4
2016-08-08T20:41:47.278Z,4
2016-08-08T20:42:12.842Z,4
2016-08-08T20:42:38.404Z,4
2016-08-08T20:43:03.963Z,4
2016-08-08T20:43:29.523Z,4
2016-08-08T20:43:55.079Z,4
2016-08-08T20:44:20.757Z,4
2016-08-08T20:44:46.300Z,4
2016-08-08T20:45:11.859Z,0
2016-08-08T20:45:37.405Z,56
2016-08-08T20:46:28.523Z,0
2016-08-08T20:46:54.083Z,0
2016-08-08T20:47:19.656Z,0
2016-08-08T20:47:45.233Z,0
2016-08-08T20:48:10.818Z,0
2016-08-08T20:48:36.435Z,48
2016-08-08T20:49:02.064Z,0
2016-08-08T20:49:27.617Z,64
2016-08-08T20:49:53.240Z,60
2016-08-08T20:50:18.794Z,60
2016-08-08T20:50:44.348Z,60
2016-08-08T20:51:09.936Z,56
2016-08-08T20:51:35.525Z,0
2016-08-08T20:52:01.063Z,0
2016-08-08T20:52:26.630Z,0
2016-08-08T20:52:52.188Z,0
2016-08-08T20:53:17.852Z,0
2016-08-08T20:53:43.427Z,0
2016-08-08T20:54:08.998Z,0
2016-08-08T20:54:34.570Z,0
2016-08-08T20:55:00.154Z,0
2016-08-08T20:55:25.711Z,0
2016-08-08T20:55:51.269Z,0
2016-08-08T20:56:16.838Z,0
2016-08-08T20:56:42.397Z,0
2016-08-08T20:57:07.993Z,0
2016-08-08T20:57:33.569Z,0
2016-08-08T20:57:59.133Z,0
2016-08-08T20:58:24.687Z,0
2016-08-08T20:58:50.232Z,0
2016-08-08T20:59:15.849Z,0
2016-08-08T20:59:41.422Z,0
2016-08-08T21:00:06.986Z,0
2016-08-08T21:00:32.539Z,0
2016-08-08T21:00:58.107Z,0
2016-08-08T21:01:23.649Z,0
2016-08-08T21:01:49.204Z,0
2016-08-08T21:40:01.159Z,0
2016-08-08T21:40:26.724Z,0
2016-08-08T21:40:52.295Z,0
2016-08-08T21:41:17.832Z,0
2016-08-08T21:41:43.396Z,0
2016-08-08T21:42:08.991Z,0
2016-08-08T21:42:34.570Z,0
2016-08-08T21:43:00.161Z,0
2016-08-08T21:43:25.731Z,0
2016-08-08T21:43:51.312Z,0
2016-08-08T21:44:16.890Z,0
2016-08-08T21:44:42.462Z,0
2016-08-08T21:45:08.073Z,0
2016-08-08T21:45:33.637Z,0
2016-08-08T21:45:59.204Z,0
2016-08-08T21:46:50.335Z,0
2016-08-08T21:47:15.916Z,0
2016-08-08T21:47:41.469Z,0
2016-08-08T21:48:07.045Z,0
2016-08-08T21:48:32.640Z,0
2016-08-08T21:48:58.262Z,0
2016-08-08T21:49:23.833Z,0
2016-08-08T21:49:49.450Z,0
2016-08-08T21:50:14.998Z,0
2016-08-08T21:51:00.551Z,0
2016-08-08T21:51:26.111Z,0
2016-08-08T21:51:51.643Z,0
2016-08-08T21:52:17.228Z,0
2016-08-08T21:52:42.785Z,0
2016-08-08T21:53:08.331Z,0
2016-08-08T21:53:33.897Z,0
2016-08-08T21:53:59.449Z,0
2016-08-08T21:54:25.024Z,0
2016-08-08T21:54:50.573Z,0
2016-08-08T21:55:16.232Z,0
2016-08-08T21:55:41.798Z,0
2016-08-08T21:56:07.433Z,0
2016-08-08T21:56:33.000Z,0
2016-08-08T21:56:58.584Z,0
2016-08-08T21:57:24.149Z,0
2016-08-08T21:57:49.696Z,0
2016-08-08T21:58:15.254Z,0
2016-08-08T21:58:40.834Z,0
2016-08-08T21:59:06.393Z,0
2016-08-08T21:59:31.964Z,0
2016-08-08T21:59:57.528Z,0
2016-08-08T22:00:23.112Z,0
2016-08-08T22:00:48.737Z,0
2016-08-08T22:01:14.296Z,0
2016-08-08T22:01:39.894Z,0
2016-08-08T22:02:05.491Z,0
2016-08-08T22:02:31.056Z,0
2016-08-08T22:02:56.619Z,0
2016-08-08T22:03:22.181Z,0
2016-08-08T22:03:47.743Z,0
2016-08-08T22:04:13.334Z,0
2016-08-08T22:04:38.910Z,0
2016-08-08T22:05:04.507Z,0
2016-08-08T22:05:30.098Z,0
2016-08-08T22:05:55.682Z,0
2016-08-08T22:06:21.251Z,0
2016-08-08T22:06:46.880Z,0
2016-08-08T22:07:12.413Z,0
2016-08-08T22:07:37.979Z,0
2016-08-08T22:08:03.573Z,0
2016-08-08T22:08:29.153Z,0
2016-08-08T22:08:54.711Z,0
2016-08-08T22:09:20.360Z,0
2016-08-08T22:09:45.932Z,0
2016-08-08T22:10:11.490Z,0
2016-08-08T22:10:37.067Z,0
2016-08-08T22:11:02.630Z,0
2016-08-08T22:11:28.267Z,0
2016-08-08T22:11:53.963Z,0
2016-08-08T22:12:19.530Z,0
2016-08-08T22:12:45.114Z,0
2016-08-08T22:13:10.691Z,0
2016-08-08T22:13:36.263Z,0
2016-08-08T22:14:01.843Z,0
2016-08-08T22:14:27.410Z,0
2016-08-08T22:14:52.994Z,0
2016-08-08T22:15:18.563Z,0
2016-08-08T22:15:44.154Z,0
2016-08-08T22:16:09.724Z,0
2016-08-08T22:16:35.277Z,0
2016-08-08T22:17:00.830Z,0
2016-08-08T22:17:26.402Z,0
2016-08-08T22:17:51.974Z,0
2016-08-08T22:18:17.528Z,0
2016-08-08T22:18:43.099Z,0
2016-08-08T22:19:08.662Z,0
2016-08-08T22:19:34.251Z,0
2016-08-08T22:19:59.841Z,0
2016-08-08T22:20:25.425Z,0
2016-08-08T22:20:50.980Z,0
2016-08-08T22:21:16.542Z,0
2016-08-08T22:21:42.102Z,0
2016-08-08T22:22:07.674Z,0
2016-08-08T22:22:33.266Z,0
2016-08-08T22:22:58.947Z,0
2016-08-08T22:23:24.523Z,0
2016-08-08T22:23:50.095Z,0
2016-08-08T22:24:15.663Z,0
2016-08-08T22:24:41.263Z,0
2016-08-08T22:25:06.829Z,0
2016-08-08T22:25:32.393Z,0
2016-08-08T22:25:57.964Z,0
2016-08-08T22:26:23.553Z,0
2016-08-08T22:26:49.131Z,0
2016-08-08T22:27:14.699Z,0
2016-08-08T22:27:40.273Z,0
2016-08-08T22:28:05.875Z,0
2016-08-08T22:28:31.441Z,0
2016-08-08T22:28:57.005Z,0
2016-08-08T22:29:22.636Z,0
2016-08-08T22:29:48.245Z,0
2016-08-08T22:30:13.865Z,0
2016-08-08T22:30:39.446Z,0
2016-08-08T22:31:05.054Z,0
